createdAt,value
2018-04-12T00:01:20.989Z,100.00
2018-04-12T00:03:48.595Z,100.00
2018-04-12T00:06:16.173Z,100.00
2018-04-12T00:08:43.780Z,100.00
2018-04-12T00:11:11.358Z,100.00
2018-04-12T00:13:38.950Z,100.00
2018-04-12T00:16:06.521Z,100.00
2018-04-12T00:18:34.106Z,100.00
2018-04-12T00:21:01.812Z,100.00
2018-04-12T00:23:29.462Z,100.00
2018-04-12T00:25:57.035Z,100.00
2018-04-12T00:28:24.616Z,100.00
2018-04-12T00:30:52.198Z,100.00
2018-04-12T00:33:19.813Z,100.00
2018-04-12T00:35:47.405Z,100.00
2018-04-12T00:38:15.015Z,100.00
2018-04-12T00:40:42.601Z,100.00
2018-04-12T00:43:10.263Z,100.00
2018-04-12T00:45:37.843Z,100.00
2018-04-12T00:48:05.432Z,100.00
2018-04-12T00:50:33.026Z,100.00
2018-04-12T00:53:00.617Z,100.00
2018-04-12T00:55:28.207Z,100.00
2018-04-12T00:57:55.818Z,100.00
2018-04-12T01:00:23.376Z,100.00
2018-04-12T01:02:50.940Z,100.00
2018-04-12T01:05:18.512Z,100.00
2018-04-12T01:07:46.108Z,100.00
2018-04-12T01:10:13.670Z,100.00
2018-04-12T01:12:41.272Z,100.00
2018-04-12T01:15:08.858Z,100.00
2018-04-12T01:17:36.439Z,100.00
2018-04-12T01:20:04.148Z,100.00
2018-04-12T01:22:31.708Z,100.00
2018-04-12T01:24:59.293Z,100.00
2018-04-12T01:27:27.167Z,100.00
2018-04-12T01:29:54.729Z,100.00
2018-04-12T01:32:22.460Z,100.00
2018-04-12T01:34:50.050Z,100.00
2018-04-12T01:37:17.613Z,100.00
2018-04-12T01:39:45.205Z,100.00
2018-04-12T01:42:12.768Z,100.00
2018-04-12T01:44:40.356Z,100.00
2018-04-12T01:47:07.919Z,100.00
2018-04-12T01:49:35.485Z,100.00
2018-04-12T01:52:03.076Z,100.00
2018-04-12T01:54:30.648Z,100.00
2018-04-12T01:56:58.277Z,100.00
2018-04-12T01:59:26.083Z,100.00
2018-04-12T02:01:53.702Z,100.00
2018-04-12T02:04:21.268Z,100.00
2018-04-12T02:06:48.954Z,100.00
2018-04-12T02:09:16.590Z,100.00
2018-04-12T02:11:44.451Z,100.00
2018-04-12T02:14:12.065Z,100.00
2018-04-12T02:16:39.636Z,100.00
2018-04-12T02:19:07.235Z,100.00
2018-04-12T02:21:34.793Z,100.00
2018-04-12T02:24:02.387Z,100.00
2018-04-12T02:26:30.004Z,100.00
2018-04-12T02:28:57.713Z,100.00
2018-04-12T02:31:25.289Z,100.00
2018-04-12T02:33:52.907Z,100.00
2018-04-12T02:36:20.500Z,100.00
2018-04-12T02:38:48.069Z,100.00
2018-04-12T02:41:15.653Z,100.00
2018-04-12T02:43:43.260Z,100.00
2018-04-12T02:46:10.824Z,100.00
2018-04-12T02:48:38.436Z,100.00
2018-04-12T02:51:06.076Z,100.00
2018-04-12T02:53:33.642Z,100.00
2018-04-12T02:56:01.196Z,100.00
2018-04-12T02:58:28.757Z,100.00
2018-04-12T03:00:56.343Z,100.00
2018-04-12T03:03:23.913Z,100.00
2018-04-12T03:05:51.469Z,100.00
2018-04-12T03:08:19.203Z,100.00
2018-04-12T03:10:46.812Z,100.00
2018-04-12T03:13:14.446Z,100.00
2018-04-12T03:15:42.024Z,100.00
2018-04-12T03:18:09.581Z,100.00
2018-04-12T03:20:37.133Z,100.00
2018-04-12T03:23:04.714Z,100.00
2018-04-12T03:25:32.327Z,100.00
2018-04-12T03:30:41.851Z,100.00
2018-04-12T03:33:09.410Z,100.00
2018-04-12T03:35:37.071Z,100.00
2018-04-12T03:38:04.675Z,100.00
2018-04-12T03:40:32.349Z,100.00
2018-04-12T03:42:59.954Z,100.00
2018-04-12T03:45:27.548Z,100.00
2018-04-12T03:47:55.121Z,100.00
2018-04-12T03:50:22.730Z,100.00
2018-04-12T03:52:50.332Z,100.00
2018-04-12T03:55:17.899Z,100.00
2018-04-12T03:57:45.454Z,100.00
2018-04-12T04:00:20.145Z,100.00
2018-04-12T04:02:48.032Z,100.00
2018-04-12T04:05:15.771Z,100.00
2018-04-12T04:07:43.591Z,100.00
2018-04-12T04:10:11.447Z,100.00
2018-04-12T04:12:39.014Z,100.00
2018-04-12T04:15:27.018Z,100.00
2018-04-12T04:18:06.428Z,100.00
2018-04-12T04:20:45.864Z,100.00
2018-04-12T04:23:13.490Z,100.00
2018-04-12T04:25:41.322Z,100.00
2018-04-12T04:28:08.904Z,100.00
2018-04-12T04:30:36.451Z,100.00
2018-04-12T04:33:04.032Z,100.00
2018-04-12T04:35:31.601Z,100.00
2018-04-12T04:38:01.951Z,100.00
2018-04-12T04:40:29.761Z,100.00
2018-04-12T04:42:57.328Z,100.00
2018-04-12T04:45:24.898Z,100.00
2018-04-12T04:47:52.434Z,100.00
2018-04-12T04:50:19.998Z,100.00
2018-04-12T04:52:47.542Z,100.00
2018-04-12T04:55:15.081Z,100.00
2018-04-12T04:57:42.626Z,100.00
2018-04-12T05:00:10.195Z,100.00
2018-04-12T05:02:37.815Z,100.00
2018-04-12T05:05:05.400Z,100.00
2018-04-12T05:07:32.991Z,100.00
2018-04-12T05:10:00.543Z,100.00
2018-04-12T05:12:28.097Z,100.00
2018-04-12T05:14:55.648Z,100.00
2018-04-12T05:17:23.190Z,100.00
2018-04-12T05:19:50.746Z,100.00
2018-04-12T05:22:18.333Z,100.00
2018-04-12T05:24:45.885Z,100.00
2018-04-12T05:27:13.469Z,100.00
2018-04-12T05:29:41.031Z,100.00
2018-04-12T05:32:09.679Z,100.00
2018-04-12T05:34:37.351Z,100.00
2018-04-12T05:37:04.908Z,100.00
2018-04-12T05:39:32.648Z,100.00
2018-04-12T05:42:00.210Z,100.00
2018-04-12T05:44:28.044Z,100.00
2018-04-12T05:46:55.608Z,100.00
2018-04-12T05:49:23.455Z,100.00
2018-04-12T05:51:51.038Z,100.00
2018-04-12T05:54:18.606Z,100.00
2018-04-12T05:56:46.340Z,100.00
2018-04-12T05:59:13.930Z,100.00
2018-04-12T06:01:41.517Z,100.00
2018-04-12T06:04:09.063Z,100.00
2018-04-12T06:06:36.650Z,100.00
2018-04-12T06:09:04.208Z,100.00
2018-04-12T06:11:31.820Z,100.00
2018-04-12T06:13:59.569Z,100.00
2018-04-12T06:16:27.233Z,100.00
2018-04-12T06:18:54.823Z,100.00
2018-04-12T06:21:22.417Z,100.00
2018-04-12T06:23:49.967Z,100.00
2018-04-12T06:26:17.537Z,100.00
2018-04-12T06:28:45.104Z,100.00
2018-04-12T06:31:12.763Z,100.00
2018-04-12T06:33:40.322Z,100.00
2018-04-12T06:36:07.887Z,100.00
2018-04-12T06:38:35.513Z,100.00
2018-04-12T06:41:03.395Z,100.00
2018-04-12T06:43:31.010Z,100.00
2018-04-12T06:45:58.593Z,100.00
2018-04-12T06:48:26.161Z,100.00
2018-04-12T06:50:53.740Z,100.00
2018-04-12T06:53:21.436Z,100.00
2018-04-12T06:55:49.755Z,100.00
2018-04-12T06:58:17.301Z,100.00
2018-04-12T07:00:44.864Z,100.00
2018-04-12T07:03:12.466Z,100.00
2018-04-12T07:05:40.041Z,100.00
2018-04-12T07:08:07.608Z,100.00
2018-04-12T07:10:35.378Z,100.00
2018-04-12T07:13:03.158Z,100.00
2018-04-12T07:15:30.715Z,100.00
2018-04-12T07:17:58.358Z,100.00
2018-04-12T07:20:25.902Z,100.00
2018-04-12T07:22:53.476Z,100.00
2018-04-12T07:25:21.057Z,100.00
2018-04-12T07:27:48.697Z,100.00
2018-04-12T07:30:16.286Z,100.00
2018-04-12T07:32:43.966Z,100.00
2018-04-12T07:35:11.577Z,100.00
2018-04-12T07:37:39.165Z,100.00
2018-04-12T07:40:06.914Z,100.00
2018-04-12T07:42:34.490Z,100.00
2018-04-12T07:45:02.251Z,100.00
2018-04-12T07:47:29.829Z,100.00
2018-04-12T07:49:57.420Z,100.00
2018-04-12T07:52:25.066Z,100.00
2018-04-12T07:54:52.693Z,100.00
2018-04-12T07:57:20.315Z,100.00
2018-04-12T07:59:48.368Z,100.00
2018-04-12T08:02:15.963Z,100.00
2018-04-12T08:04:43.553Z,100.00
2018-04-12T08:07:11.255Z,100.00
2018-04-12T08:09:38.827Z,100.00
2018-04-12T08:12:06.445Z,100.00
2018-04-12T08:14:34.133Z,100.00
2018-04-12T08:17:01.837Z,100.00
2018-04-12T08:19:29.620Z,100.00
2018-04-12T08:21:57.255Z,100.00
2018-04-12T08:24:24.844Z,100.00
2018-04-12T08:26:52.561Z,100.00
2018-04-12T08:29:20.168Z,100.00
2018-04-12T08:31:47.762Z,100.00
2018-04-12T08:34:15.452Z,100.00
2018-04-12T08:36:43.109Z,99.69
2018-04-12T08:39:10.796Z,99.46
2018-04-12T08:41:38.434Z,98.47
2018-04-12T08:44:06.039Z,98.44
2018-04-12T08:46:33.771Z,98.11
2018-04-12T08:49:01.477Z,98.63
2018-04-12T08:51:29.174Z,98.26
2018-04-12T08:53:56.898Z,97.12
2018-04-12T08:56:24.644Z,97.02
2018-04-12T08:58:52.291Z,96.94
2018-04-12T09:01:19.958Z,96.52
2018-04-12T09:03:47.628Z,96.55
2018-04-12T09:06:15.207Z,97.27
2018-04-12T09:08:43.092Z,95.79
2018-04-12T09:11:10.726Z,96.08
2018-04-12T09:13:39.304Z,96.12
2018-04-12T09:16:06.941Z,96.50
2018-04-12T09:18:34.557Z,96.61
2018-04-12T09:21:02.128Z,96.05
2018-04-12T09:23:30.094Z,95.87
2018-04-12T09:25:58.787Z,95.72
2018-04-12T09:28:26.383Z,95.45
2018-04-12T09:30:54.011Z,95.09
2018-04-12T09:33:21.665Z,95.05
2018-04-12T09:35:49.291Z,94.74
2018-04-12T09:38:16.884Z,94.40
2018-04-12T09:40:44.539Z,94.50
2018-04-12T09:43:12.169Z,94.36
2018-04-12T09:45:39.796Z,93.99
2018-04-12T09:48:07.394Z,93.62
2018-04-12T09:50:35.243Z,93.51
2018-04-12T09:53:03.027Z,93.12
2018-04-12T09:55:30.729Z,91.56
2018-04-12T09:58:13.608Z,91.57
2018-04-12T10:00:41.381Z,91.59
2018-04-12T10:03:13.679Z,90.42
2018-04-12T10:05:46.957Z,90.95
2018-04-12T10:08:20.271Z,90.79
2018-04-12T10:10:47.932Z,90.29
2018-04-12T10:13:15.516Z,89.93
2018-04-12T10:15:43.104Z,89.77
2018-04-12T10:18:10.688Z,89.76
2018-04-12T10:20:38.297Z,89.14
2018-04-12T10:23:06.858Z,88.97
2018-04-12T10:25:34.588Z,88.65
2018-04-12T10:28:02.231Z,87.69
2018-04-12T10:30:29.798Z,87.00
2018-04-12T10:32:57.614Z,86.63
2018-04-12T10:35:25.211Z,85.06
2018-04-12T10:37:52.828Z,84.53
2018-04-12T10:40:20.482Z,84.16
2018-04-12T10:42:48.198Z,84.49
2018-04-12T10:45:15.874Z,84.46
2018-04-12T10:47:43.494Z,84.27
2018-04-12T10:50:11.281Z,84.39
2018-04-12T10:52:40.054Z,83.95
2018-04-12T10:55:07.735Z,83.71
2018-04-12T10:57:35.380Z,83.31
2018-04-12T11:00:03.009Z,82.60
2018-04-12T11:02:30.668Z,82.05
2018-04-12T11:04:58.346Z,81.66
2018-04-12T11:07:25.972Z,81.02
2018-04-12T11:09:53.633Z,80.53
2018-04-12T11:12:21.255Z,79.73
2018-04-12T11:14:48.991Z,78.65
2018-04-12T11:17:16.668Z,77.69
2018-04-12T11:19:44.329Z,77.10
2018-04-12T11:22:12.024Z,78.21
2018-04-12T11:24:39.645Z,78.30
2018-04-12T11:27:07.229Z,77.32
2018-04-12T11:29:34.796Z,76.72
2018-04-12T11:32:02.423Z,76.65
2018-04-12T11:34:30.146Z,77.56
2018-04-12T11:36:57.891Z,76.64
2018-04-12T11:39:25.591Z,76.20
2018-04-12T11:41:53.222Z,76.23
2018-04-12T11:44:21.014Z,76.89
2018-04-12T11:46:48.636Z,76.01
2018-04-12T11:49:16.315Z,75.88
2018-04-12T11:51:44.055Z,76.31
2018-04-12T11:54:11.661Z,75.82
2018-04-12T11:56:39.497Z,75.72
2018-04-12T11:59:07.342Z,76.29
2018-04-12T12:01:34.908Z,76.17
2018-04-12T12:04:02.590Z,75.79
2018-04-12T12:06:30.184Z,75.98
2018-04-12T12:08:58.017Z,75.59
2018-04-12T12:11:25.721Z,74.58
2018-04-12T12:13:54.002Z,73.93
2018-04-12T12:16:21.859Z,74.23
2018-04-12T12:18:49.673Z,73.21
2018-04-12T12:21:17.352Z,73.46
2018-04-12T12:23:45.168Z,72.51
2018-04-12T12:26:12.963Z,72.56
2018-04-12T12:28:40.538Z,71.55
2018-04-12T12:31:08.198Z,71.87
2018-04-12T12:33:35.976Z,71.40
2018-04-12T12:36:03.520Z,71.46
2018-04-12T12:38:31.084Z,70.21
2018-04-12T12:40:58.880Z,70.34
2018-04-12T12:43:26.569Z,70.63
2018-04-12T12:45:54.137Z,70.36
2018-04-12T12:48:21.777Z,69.42
2018-04-12T12:50:49.443Z,69.41
2018-04-12T12:53:17.134Z,69.75
2018-04-12T12:55:44.821Z,69.66
2018-04-12T12:58:12.464Z,68.97
2018-04-12T13:00:40.100Z,68.83
2018-04-12T13:03:07.922Z,68.14
2018-04-12T13:05:35.738Z,68.64
2018-04-12T13:08:03.540Z,68.07
2018-04-12T13:10:31.207Z,67.65
2018-04-12T13:12:58.945Z,66.33
2018-04-12T13:15:26.737Z,65.35
2018-04-12T13:17:54.327Z,65.13
2018-04-12T13:20:21.905Z,65.04
2018-04-12T13:22:50.645Z,63.26
2018-04-12T13:25:22.490Z,62.46
2018-04-12T13:27:50.106Z,62.83
2018-04-12T13:30:17.765Z,62.43
2018-04-12T13:32:45.414Z,61.46
2018-04-12T13:35:13.004Z,62.30
2018-04-12T13:37:40.653Z,61.91
2018-04-12T13:40:08.311Z,61.68
2018-04-12T13:42:36.021Z,61.21
2018-04-12T13:45:03.720Z,62.10
2018-04-12T13:47:31.363Z,60.73
2018-04-12T13:49:58.992Z,60.81
2018-04-12T13:52:26.717Z,59.45
2018-04-12T13:54:54.418Z,59.46
2018-04-12T13:57:22.188Z,59.85
2018-04-12T13:59:49.738Z,59.29
2018-04-12T14:02:17.719Z,59.14
2018-04-12T14:04:49.142Z,59.65
2018-04-12T14:07:16.775Z,59.52
2018-04-12T14:09:44.606Z,60.04
2018-04-12T14:12:12.329Z,61.40
2018-04-12T14:14:39.902Z,63.46
2018-04-12T14:17:07.584Z,62.61
2018-04-12T14:19:35.388Z,60.80
2018-04-12T14:22:02.929Z,60.34
2018-04-12T14:24:30.506Z,61.05
2018-04-12T14:26:58.147Z,61.51
2018-04-12T14:29:25.809Z,61.21
2018-04-12T14:31:53.397Z,63.79
2018-04-12T14:34:21.108Z,61.19
2018-04-12T14:36:48.752Z,62.73
2018-04-12T14:39:16.443Z,61.62
2018-04-12T14:41:44.061Z,62.23
2018-04-12T14:44:11.647Z,62.65
2018-04-12T14:46:39.287Z,62.29
2018-04-12T14:49:07.028Z,62.44
2018-04-12T14:51:34.943Z,62.12
2018-04-12T14:54:02.558Z,63.50
2018-04-12T14:56:31.044Z,62.34
2018-04-12T14:58:58.624Z,62.50
2018-04-12T15:01:26.185Z,62.86
2018-04-12T15:03:53.906Z,63.14
2018-04-12T15:06:21.615Z,63.43
2018-04-12T15:08:49.290Z,64.97
2018-04-12T15:11:16.825Z,65.14
2018-04-12T15:13:44.427Z,63.16
2018-04-12T15:16:12.053Z,64.01
2018-04-12T15:18:39.770Z,65.24
2018-04-12T15:21:07.547Z,63.61
2018-04-12T15:23:35.084Z,64.83
2018-04-12T15:26:02.680Z,64.16
2018-04-12T15:28:30.418Z,65.04
2018-04-12T15:30:58.038Z,64.24
2018-04-12T15:33:25.644Z,63.54
2018-04-12T15:35:53.207Z,62.91
2018-04-12T15:38:20.868Z,62.80
2018-04-12T15:40:48.990Z,63.60
2018-04-12T15:43:17.165Z,63.27
2018-04-12T15:45:44.876Z,64.29
2018-04-12T15:48:12.532Z,62.60
2018-04-12T15:50:40.184Z,63.15
2018-04-12T15:53:07.871Z,63.63
2018-04-12T15:55:35.468Z,63.32
2018-04-12T15:58:03.124Z,62.47
2018-04-12T16:00:30.840Z,64.17
2018-04-12T16:02:58.484Z,62.49
2018-04-12T16:05:26.036Z,62.91
2018-04-12T16:07:53.783Z,62.45
2018-04-12T16:10:21.404Z,62.34
2018-04-12T16:12:49.109Z,61.16
2018-04-12T16:15:16.661Z,62.88
2018-04-12T16:17:44.229Z,62.37
2018-04-12T16:20:11.790Z,62.59
2018-04-12T16:22:39.348Z,62.66
2018-04-12T16:25:06.915Z,62.41
2018-04-12T16:27:34.508Z,62.26
2018-04-12T16:30:02.235Z,62.54
2018-04-12T16:32:29.844Z,62.58
2018-04-12T16:34:57.515Z,63.27
2018-04-12T16:37:25.209Z,62.75
2018-04-12T16:39:52.854Z,62.29
2018-04-12T16:42:20.441Z,62.54
2018-04-12T16:44:48.094Z,62.64
2018-04-12T16:47:15.820Z,63.05
2018-04-12T16:49:43.557Z,62.85
2018-04-12T16:52:11.216Z,62.15
2018-04-12T16:54:38.766Z,63.49
2018-04-12T16:57:06.570Z,64.07
2018-04-12T16:59:34.944Z,63.40
2018-04-12T17:02:02.627Z,63.01
2018-04-12T17:04:30.257Z,62.91
2018-04-12T17:06:58.180Z,63.04
2018-04-12T17:09:26.478Z,63.11
2018-04-12T17:11:54.030Z,62.99
2018-04-12T17:14:21.609Z,63.08
2018-04-12T17:16:49.337Z,63.27
2018-04-12T17:19:16.978Z,63.30
2018-04-12T17:21:47.176Z,63.71
2018-04-12T17:24:14.764Z,63.47
2018-04-12T17:26:42.381Z,63.82
2018-04-12T17:29:10.094Z,63.62
2018-04-12T17:31:37.763Z,63.73
2018-04-12T17:34:05.351Z,63.68
2018-04-12T17:36:32.903Z,63.97
2018-04-12T17:39:01.419Z,63.85
2018-04-12T17:41:29.093Z,64.01
2018-04-12T17:43:56.680Z,63.93
2018-04-12T17:46:24.248Z,64.49
2018-04-12T17:48:51.847Z,64.57
2018-04-12T17:51:19.741Z,64.84
2018-04-12T17:53:47.403Z,64.87
2018-04-12T17:56:14.967Z,65.01
2018-04-12T17:58:42.550Z,65.19
2018-04-12T18:01:11.081Z,65.21
2018-04-12T18:03:38.713Z,65.65
2018-04-12T18:06:06.291Z,65.96
2018-04-12T18:08:33.841Z,66.25
2018-04-12T18:11:01.412Z,66.41
2018-04-12T18:13:29.516Z,66.65
2018-04-12T18:15:57.159Z,67.03
2018-04-12T18:18:24.737Z,67.18
2018-04-12T18:20:52.307Z,67.10
2018-04-12T18:23:19.953Z,67.09
2018-04-12T18:25:47.549Z,66.99
2018-04-12T18:28:15.210Z,67.22
2018-04-12T18:30:42.757Z,67.87
2018-04-12T18:33:10.405Z,68.25
2018-04-12T18:35:38.362Z,68.52
2018-04-12T18:38:05.947Z,68.80
2018-04-12T18:40:33.515Z,68.70
2018-04-12T18:43:01.065Z,68.71
2018-04-12T18:45:28.633Z,69.03
2018-04-12T18:47:56.311Z,69.04
2018-04-12T18:50:24.004Z,69.08
2018-04-12T18:52:51.702Z,69.19
2018-04-12T18:55:19.286Z,69.34
2018-04-12T18:57:46.919Z,69.16
2018-04-12T19:00:14.506Z,68.94
2018-04-12T19:02:42.041Z,69.01
2018-04-12T19:05:09.667Z,68.83
2018-04-12T19:07:37.300Z,69.05
2018-04-12T19:10:04.934Z,69.13
2018-04-12T19:12:32.482Z,69.14
2018-04-12T19:15:00.051Z,69.24
2018-04-12T19:17:27.710Z,69.57
2018-04-12T19:19:56.285Z,69.75
2018-04-12T19:22:24.432Z,69.86
2018-04-12T19:24:52.048Z,69.67
2018-04-12T19:27:19.663Z,69.97
2018-04-12T19:29:47.285Z,69.78
2018-04-12T19:32:15.478Z,70.04
2018-04-12T19:34:43.198Z,70.31
2018-04-12T19:37:11.233Z,70.47
2018-04-12T19:39:38.829Z,70.72
2018-04-12T19:42:06.529Z,70.68
2018-04-12T19:44:34.117Z,70.99
2018-04-12T19:47:01.818Z,71.34
2018-04-12T19:49:29.568Z,71.63
2018-04-12T19:51:57.128Z,71.93
2018-04-12T19:54:24.829Z,71.95
2018-04-12T19:56:52.448Z,71.96
2018-04-12T19:59:20.021Z,72.18
2018-04-12T20:01:47.709Z,72.29
2018-04-12T20:04:15.365Z,72.17
2018-04-12T20:06:43.046Z,72.33
2018-04-12T20:09:10.761Z,72.49
2018-04-12T20:11:38.419Z,73.36
2018-04-12T20:14:06.202Z,72.58
2018-04-12T20:16:33.945Z,72.81
2018-04-12T20:19:02.097Z,73.05
2018-04-12T20:21:29.798Z,73.29
2018-04-12T20:23:57.689Z,73.44
2018-04-12T20:26:25.335Z,73.12
2018-04-12T20:28:52.902Z,72.09
2018-04-12T20:31:20.475Z,71.85
2018-04-12T20:33:48.061Z,71.95
2018-04-12T20:36:15.662Z,72.02
2018-04-12T20:38:44.135Z,72.38
2018-04-12T20:41:11.792Z,72.24
2018-04-12T20:43:39.388Z,72.44
2018-04-12T20:46:07.020Z,72.73
2018-04-12T20:48:34.735Z,73.01
2018-04-12T20:51:02.686Z,72.85
2018-04-12T20:53:30.365Z,72.67
2018-04-12T20:55:57.931Z,72.56
2018-04-12T20:58:25.520Z,72.13
2018-04-12T21:00:53.156Z,72.01
2018-04-12T21:03:20.774Z,72.02
2018-04-12T21:05:48.351Z,72.45
2018-04-12T21:08:15.981Z,72.49
2018-04-12T21:10:43.521Z,72.27
2018-04-12T21:13:11.357Z,72.00
2018-04-12T21:15:39.016Z,72.45
2018-04-12T21:18:06.630Z,72.47
2018-04-12T21:20:34.184Z,71.78
2018-04-12T21:23:01.827Z,71.59
2018-04-12T21:25:29.427Z,72.11
2018-04-12T21:27:57.021Z,71.76
2018-04-12T21:30:24.646Z,71.93
2018-04-12T21:32:52.363Z,71.84
2018-04-12T21:35:20.040Z,71.86
2018-04-12T21:37:47.596Z,71.84
2018-04-12T21:40:15.223Z,72.10
2018-04-12T21:42:42.880Z,72.05
2018-04-12T21:45:10.522Z,69.22
2018-04-12T21:47:38.175Z,68.11
2018-04-12T21:50:05.748Z,71.54
2018-04-12T21:52:33.316Z,73.08
2018-04-12T21:55:01.151Z,78.65
2018-04-12T21:57:28.796Z,84.20
2018-04-12T21:59:56.384Z,85.24
2018-04-12T22:02:23.987Z,87.39
2018-04-12T22:04:51.540Z,87.15
2018-04-12T22:07:19.085Z,88.72
2018-04-12T22:09:47.090Z,88.79
2018-04-12T22:12:14.642Z,89.57
2018-04-12T22:14:42.213Z,92.20
2018-04-12T22:17:09.737Z,92.93
2018-04-12T22:19:37.297Z,93.25
2018-04-12T22:22:04.848Z,92.90
2018-04-12T22:24:32.409Z,94.44
2018-04-12T22:26:59.972Z,93.73
2018-04-12T22:29:27.541Z,94.25
2018-04-12T22:31:55.110Z,94.92
2018-04-12T22:34:22.687Z,94.10
2018-04-12T22:36:50.267Z,94.31
2018-04-12T22:39:17.806Z,94.55
2018-04-12T22:41:45.402Z,94.68
2018-04-12T22:44:12.972Z,95.85
2018-04-12T22:46:40.535Z,95.25
2018-04-12T22:49:08.105Z,95.44
2018-04-12T22:51:35.641Z,95.83
2018-04-12T22:54:03.218Z,96.06
2018-04-12T22:56:30.754Z,95.82
2018-04-12T22:58:58.314Z,95.56
2018-04-12T23:01:25.881Z,95.65
2018-04-12T23:03:53.470Z,96.08
2018-04-12T23:06:21.016Z,98.27
2018-04-12T23:08:48.588Z,98.88
2018-04-12T23:11:16.145Z,99.19
2018-04-12T23:13:43.748Z,98.90
2018-04-12T23:16:11.298Z,98.69
2018-04-12T23:18:38.850Z,98.56
2018-04-12T23:21:06.442Z,98.16
2018-04-12T23:23:33.975Z,97.72
2018-04-12T23:26:01.557Z,97.66
2018-04-12T23:28:29.103Z,98.12
2018-04-12T23:30:56.675Z,98.99
2018-04-12T23:33:24.260Z,99.85
2018-04-12T23:35:51.828Z,99.55
2018-04-12T23:38:19.419Z,100.00
2018-04-12T23:40:47.002Z,100.00
2018-04-12T23:43:14.551Z,99.91
2018-04-12T23:45:42.162Z,99.50
2018-04-12T23:48:09.802Z,99.26
2018-04-12T23:50:37.356Z,98.94
2018-04-12T23:53:04.916Z,99.14
2018-04-12T23:55:32.477Z,99.13
2018-04-12T23:58:00.044Z,99.32
